createdAt,value
2024-02-16T00:03:10.915Z,2.75
2024-02-16T00:08:14.331Z,1.60
2024-02-16T00:13:16.878Z,4.43
2024-02-16T00:18:19.152Z,4.00
2024-02-16T00:23:23.541Z,1.30
2024-02-16T00:28:25.752Z,2.00
2024-02-16T00:33:30.381Z,2.47
2024-02-16T00:38:32.680Z,3.92
2024-02-16T00:43:35.122Z,2.42
2024-02-16T00:48:37.536Z,1.70
2024-02-16T00:53:39.755Z,1.73
2024-02-16T00:58:45.659Z,3.47
2024-02-16T01:03:47.824Z,2.83
2024-02-16T01:08:50.142Z,2.55
2024-02-16T01:13:52.549Z,1.60
2024-02-16T01:18:54.925Z,4.07
2024-02-16T01:24:00.557Z,4.25
2024-02-16T01:29:03.470Z,1.13
2024-02-16T01:34:06.254Z,1.35
2024-02-16T01:39:08.578Z,1.23
2024-02-16T01:44:10.763Z,2.70
2024-02-16T01:49:15.771Z,2.33
2024-02-16T01:54:19.121Z,0.95
2024-02-16T01:59:21.703Z,3.50
2024-02-16T02:04:24.277Z,2.73
2024-02-16T02:09:26.771Z,1.80
2024-02-16T02:14:29.252Z,1.60
2024-02-16T02:19:31.716Z,1.77
2024-02-16T02:24:34.531Z,1.83
2024-02-16T02:29:36.713Z,1.60
2024-02-16T02:34:39.016Z,3.45
2024-02-16T02:39:41.606Z,2.37
2024-02-16T02:44:50.855Z,1.90
2024-02-16T02:49:53.165Z,1.35
2024-02-16T02:54:55.341Z,1.13
2024-02-16T03:00:05.271Z,1.77
2024-02-16T03:05:08.384Z,2.40
2024-02-16T03:10:10.886Z,2.27
2024-02-16T03:15:13.307Z,2.00
2024-02-16T03:20:15.528Z,1.63
2024-02-16T03:25:17.737Z,3.13
2024-02-16T03:30:20.180Z,1.70
2024-02-16T03:35:22.423Z,3.67
2024-02-16T03:40:25.790Z,2.60
2024-02-16T03:45:31.089Z,1.33
2024-02-16T03:50:33.292Z,0.98
2024-02-16T03:55:37.643Z,0.97
2024-02-16T04:00:39.948Z,3.05
2024-02-16T04:05:42.440Z,0.80
2024-02-16T04:10:44.691Z,1.95
2024-02-16T04:15:47.427Z,0.87
2024-02-16T04:20:50.378Z,1.25
2024-02-16T04:25:53.170Z,3.30
2024-02-16T04:30:55.324Z,1.25
2024-02-16T04:35:57.515Z,1.70
2024-02-16T04:40:59.769Z,0.87
2024-02-16T04:46:02.264Z,1.92
2024-02-16T04:51:04.409Z,1.77
2024-02-16T04:56:06.875Z,1.85
2024-02-16T05:01:09.172Z,2.50
2024-02-16T05:06:11.690Z,1.10
2024-02-16T05:11:14.628Z,3.28
2024-02-16T05:16:17.373Z,2.72
2024-02-16T05:21:20.121Z,2.72
2024-02-16T05:26:22.371Z,1.52
2024-02-16T05:31:24.622Z,1.33
2024-02-16T05:36:31.153Z,1.20
2024-02-16T05:41:34.484Z,2.40
2024-02-16T05:46:38.988Z,1.33
2024-02-16T05:51:42.149Z,0.70
2024-02-16T05:56:45.537Z,1.53
2024-02-16T06:01:48.368Z,5.10
2024-02-16T06:06:50.857Z,1.10
2024-02-16T06:11:53.124Z,3.20
2024-02-16T06:17:00.933Z,1.75
2024-02-16T06:22:03.312Z,2.72
2024-02-16T06:27:05.730Z,1.85
2024-02-16T06:32:08.307Z,1.43
2024-02-16T06:37:10.449Z,2.03
2024-02-16T06:47:15.449Z,1.33
2024-02-16T06:52:17.643Z,1.23
2024-02-16T06:57:21.587Z,1.90
2024-02-16T07:02:23.882Z,3.42
2024-02-16T07:07:26.171Z,1.80
2024-02-16T07:12:28.389Z,1.27
2024-02-16T07:17:30.741Z,1.10
2024-02-16T07:22:34.198Z,2.08
2024-02-16T07:27:36.366Z,1.67
2024-02-16T07:32:38.836Z,2.88
2024-02-16T07:37:43.154Z,1.55
2024-02-16T07:42:46.300Z,2.63
2024-02-16T07:47:48.638Z,1.40
2024-02-16T07:52:51.887Z,2.35
2024-02-16T07:57:54.178Z,1.53
2024-02-16T08:02:56.585Z,2.20
2024-02-16T08:07:58.864Z,3.55
2024-02-16T08:13:01.086Z,1.63
2024-02-16T08:18:04.286Z,2.40
2024-02-16T08:23:06.634Z,1.73
2024-02-16T08:28:09.927Z,1.20
2024-02-16T08:33:13.928Z,4.30
2024-02-16T08:38:16.219Z,2.13
2024-02-16T08:43:18.641Z,2.50
2024-02-16T08:48:20.945Z,2.33
2024-02-16T08:53:23.232Z,3.03
2024-02-16T08:58:25.401Z,2.92
2024-02-16T09:03:28.204Z,1.57
2024-02-16T09:08:34.097Z,3.50
2024-02-16T09:13:41.628Z,1.90
2024-02-16T09:18:44.164Z,1.80
2024-02-16T09:23:46.442Z,1.20
2024-02-16T09:28:48.754Z,2.37
2024-02-16T09:33:53.143Z,5.00
2024-02-16T09:38:55.543Z,2.53
2024-02-16T09:43:57.809Z,1.75
2024-02-16T09:49:04.053Z,1.97
2024-02-16T09:54:10.417Z,3.22
2024-02-16T09:59:13.463Z,2.00
2024-02-16T10:04:16.367Z,1.75
2024-02-16T10:09:27.942Z,36.27
2024-02-16T10:14:33.196Z,3.87
2024-02-16T10:19:44.461Z,4.57
2024-02-16T10:24:47.274Z,4.10
2024-02-16T10:29:53.101Z,2.95
2024-02-16T10:34:55.812Z,3.22
2024-02-16T10:39:59.169Z,4.65
2024-02-16T10:45:02.456Z,4.32
2024-02-16T10:50:05.811Z,1.70
2024-02-16T10:55:10.415Z,3.25
2024-02-16T11:00:14.174Z,1.50
2024-02-16T11:05:20.513Z,1.40
2024-02-16T11:10:22.768Z,1.73
2024-02-16T11:15:32.329Z,2.28
2024-02-16T11:20:41.903Z,1.67
2024-02-16T11:25:54.321Z,2.47
2024-02-16T11:30:59.655Z,10.23
2024-02-16T11:36:09.711Z,3.17
2024-02-16T11:41:12.587Z,3.50
2024-02-16T11:46:16.151Z,5.68
2024-02-16T11:51:19.000Z,2.50
2024-02-16T11:56:25.830Z,1.90
2024-02-16T12:01:28.728Z,2.35
2024-02-16T12:06:31.442Z,2.38
2024-02-16T12:11:34.259Z,2.85
2024-02-16T12:16:36.547Z,2.83
2024-02-16T12:21:40.211Z,6.17
2024-02-16T12:26:43.017Z,6.40
2024-02-16T12:31:50.512Z,2.67
2024-02-16T12:36:52.793Z,4.53
2024-02-16T12:41:55.206Z,3.53
2024-02-16T12:46:57.357Z,3.90
2024-02-16T12:52:00.052Z,5.03
2024-02-16T12:57:02.579Z,3.13
2024-02-16T13:02:05.201Z,5.80
2024-02-16T13:07:07.625Z,2.60
2024-02-16T13:12:10.274Z,5.50
2024-02-16T13:17:13.612Z,5.18
2024-02-16T13:22:16.210Z,3.38
2024-02-16T13:27:18.745Z,4.93
2024-02-16T13:32:21.241Z,5.00
2024-02-16T13:37:23.375Z,4.23
2024-02-16T13:42:28.004Z,3.85
2024-02-16T13:47:30.328Z,3.50
2024-02-16T13:52:32.488Z,3.50
2024-02-16T13:57:34.615Z,5.13
2024-02-16T14:02:36.824Z,6.82
2024-02-16T14:07:46.597Z,6.33
2024-02-16T14:12:53.489Z,4.35
2024-02-16T14:17:56.032Z,6.37
2024-02-16T14:22:58.290Z,9.48
2024-02-16T14:28:00.624Z,6.93
2024-02-16T14:33:05.775Z,8.68
2024-02-16T14:38:08.442Z,7.15
2024-02-16T14:43:11.780Z,7.70
2024-02-16T14:48:14.489Z,7.43
2024-02-16T14:53:24.325Z,7.80
2024-02-16T14:58:27.059Z,7.13
2024-02-16T15:03:31.798Z,9.30
2024-02-16T15:08:34.351Z,9.83
2024-02-16T15:13:38.840Z,10.07
2024-02-16T15:18:41.109Z,14.30
2024-02-16T15:23:43.379Z,11.20
2024-02-16T15:28:45.503Z,14.75
2024-02-16T15:33:47.953Z,13.20
2024-02-16T15:38:55.389Z,13.03
2024-02-16T15:44:03.734Z,16.67
2024-02-16T15:49:06.876Z,14.67
2024-02-16T15:54:09.377Z,9.27
2024-02-16T15:59:11.757Z,8.48
2024-02-16T16:04:15.091Z,6.35
2024-02-16T16:09:17.459Z,8.90
2024-02-16T16:14:19.797Z,6.65
2024-02-16T16:19:23.336Z,5.20
2024-02-16T16:24:25.665Z,7.78
2024-02-16T16:29:27.964Z,5.77
2024-02-16T16:34:30.588Z,4.78
2024-02-16T16:39:33.317Z,3.90
2024-02-16T16:44:35.949Z,5.43
2024-02-16T16:49:42.322Z,8.17
2024-02-16T16:54:44.799Z,5.72
2024-02-16T16:59:47.035Z,5.75
2024-02-16T17:04:49.485Z,6.38
2024-02-16T17:09:55.457Z,6.70
2024-02-16T17:14:58.171Z,8.23
2024-02-16T17:20:01.433Z,4.30
2024-02-16T17:25:09.390Z,4.37
2024-02-16T17:30:12.696Z,5.30
2024-02-16T17:35:15.620Z,5.47
2024-02-16T17:40:19.107Z,4.78
2024-02-16T17:45:22.390Z,5.93
2024-02-16T17:50:25.770Z,6.27
2024-02-16T17:55:28.608Z,7.53
2024-02-16T18:00:31.392Z,4.82
2024-02-16T18:05:33.901Z,4.68
2024-02-16T18:10:36.692Z,4.45
2024-02-16T18:15:39.198Z,4.25
2024-02-16T18:20:41.349Z,6.30
2024-02-16T18:25:44.283Z,5.43
2024-02-16T18:30:46.515Z,7.70
2024-02-16T18:35:48.737Z,6.57
2024-02-16T18:40:50.932Z,8.57
2024-02-16T18:45:53.531Z,7.23
2024-02-16T18:50:55.938Z,5.82
2024-02-16T18:55:58.206Z,5.60
2024-02-16T19:01:00.500Z,6.85
2024-02-16T19:06:02.795Z,6.38
2024-02-16T19:11:05.119Z,7.13
2024-02-16T19:16:07.984Z,6.63
2024-02-16T19:21:10.417Z,4.55
2024-02-16T19:26:12.729Z,6.38
2024-02-16T19:31:15.145Z,4.40
2024-02-16T19:36:17.618Z,5.32
2024-02-16T19:41:20.152Z,3.92
2024-02-16T19:46:22.306Z,3.90
2024-02-16T19:51:24.553Z,7.20
2024-02-16T19:56:26.839Z,6.87
2024-02-16T20:01:29.290Z,6.50
2024-02-16T20:06:31.542Z,6.97
2024-02-16T20:11:33.957Z,8.00
2024-02-16T20:16:39.108Z,9.05
2024-02-16T20:21:41.482Z,7.70
2024-02-16T20:26:43.748Z,10.60
2024-02-16T20:31:45.878Z,8.23
2024-02-16T20:36:50.996Z,7.15
2024-02-16T20:41:53.217Z,6.13
2024-02-16T20:46:55.578Z,11.38
2024-02-16T20:51:57.752Z,6.30
2024-02-16T20:57:01.442Z,5.13
2024-02-16T21:02:03.913Z,4.28
2024-02-16T21:07:06.382Z,3.97
2024-02-16T21:12:09.280Z,4.30
2024-02-16T21:17:11.587Z,4.37
2024-02-16T21:22:14.737Z,3.80
2024-02-16T21:27:17.203Z,3.53
2024-02-16T21:32:19.802Z,4.82
2024-02-16T21:37:22.086Z,4.43
2024-02-16T21:42:24.885Z,4.82
2024-02-16T21:47:28.415Z,8.50
2024-02-16T21:52:30.608Z,5.77
2024-02-16T21:57:32.843Z,6.30
2024-02-16T22:02:35.110Z,5.80
2024-02-16T22:07:37.419Z,8.13
2024-02-16T22:12:39.779Z,8.13
2024-02-16T22:17:41.951Z,9.07
2024-02-16T22:22:44.462Z,10.17
2024-02-16T22:27:47.109Z,8.20
2024-02-16T22:32:49.564Z,8.10
2024-02-16T22:37:51.756Z,9.45
2024-02-16T22:42:54.215Z,9.13
2024-02-16T22:47:56.518Z,9.20
2024-02-16T22:52:58.731Z,10.43
2024-02-16T22:58:01.564Z,9.75
2024-02-16T23:03:05.351Z,12.05
2024-02-16T23:08:08.184Z,10.30
2024-02-16T23:13:13.478Z,10.38
2024-02-16T23:18:16.055Z,12.23
2024-02-16T23:23:18.769Z,12.15
2024-02-16T23:28:21.581Z,12.60
2024-02-16T23:33:24.013Z,14.77
2024-02-16T23:38:26.417Z,13.95
2024-02-16T23:43:29.814Z,11.87
2024-02-16T23:48:32.209Z,13.45
2024-02-16T23:53:35.304Z,13.20
2024-02-16T23:58:37.460Z,12.35
